createdAt,value
2022-09-02T00:02:02.013Z,4.00
2022-09-02T00:05:24.097Z,3.75
2022-09-02T00:08:45.977Z,4.28
2022-09-02T00:12:09.570Z,4.13
2022-09-02T00:15:32.908Z,3.75
2022-09-02T00:18:56.292Z,3.70
2022-09-02T00:22:18.299Z,3.92
2022-09-02T00:25:40.690Z,4.10
2022-09-02T00:29:02.470Z,4.10
2022-09-02T00:32:24.288Z,4.25
2022-09-02T00:35:46.256Z,4.30
2022-09-02T00:39:08.768Z,3.78
2022-09-02T00:42:30.530Z,3.85
2022-09-02T00:45:54.351Z,3.95
2022-09-02T00:49:31.502Z,4.18
2022-09-02T00:53:04.966Z,3.58
2022-09-02T00:56:30.754Z,4.70
2022-09-02T01:00:11.434Z,4.03
2022-09-02T01:03:34.081Z,3.78
2022-09-02T01:06:56.675Z,3.80
2022-09-02T01:10:23.514Z,4.25
2022-09-02T01:13:45.321Z,4.13
2022-09-02T01:17:09.538Z,4.35
2022-09-02T01:20:32.385Z,4.18
2022-09-02T01:23:54.652Z,3.65
2022-09-02T01:27:19.755Z,4.18
2022-09-02T01:30:44.661Z,4.57
2022-09-02T01:34:06.678Z,4.32
2022-09-02T01:37:28.591Z,4.65
2022-09-02T01:40:52.558Z,4.40
2022-09-02T01:44:17.700Z,4.10
2022-09-02T01:47:39.810Z,4.05
2022-09-02T01:51:04.108Z,4.20
2022-09-02T01:54:25.906Z,4.18
2022-09-02T01:57:47.710Z,4.43
2022-09-02T02:01:11.426Z,4.72
2022-09-02T02:04:35.510Z,4.15
2022-09-02T02:07:59.577Z,4.30
2022-09-02T02:11:24.027Z,4.00
2022-09-02T02:14:50.833Z,4.47
2022-09-02T02:18:12.749Z,4.00
2022-09-02T02:21:34.595Z,4.40
2022-09-02T02:24:56.370Z,4.40
2022-09-02T02:28:18.310Z,3.85
2022-09-02T02:31:41.098Z,3.97
2022-09-02T02:35:04.361Z,4.38
2022-09-02T02:38:27.591Z,4.32
2022-09-02T02:41:49.519Z,4.35
2022-09-02T02:45:15.174Z,4.60
2022-09-02T02:48:38.195Z,4.75
2022-09-02T02:52:00.953Z,4.20
2022-09-02T02:55:24.957Z,5.03
2022-09-02T02:58:46.990Z,4.82
2022-09-02T03:02:09.272Z,4.20
2022-09-02T03:05:35.547Z,4.57
2022-09-02T03:08:59.612Z,4.40
2022-09-02T03:12:22.407Z,4.25
2022-09-02T03:15:44.237Z,4.38
2022-09-02T03:19:06.756Z,4.32
2022-09-02T03:22:29.338Z,4.68
2022-09-02T03:25:51.212Z,4.50
2022-09-02T03:29:22.745Z,4.65
2022-09-02T03:32:45.587Z,4.85
2022-09-02T03:36:07.828Z,4.32
2022-09-02T03:39:30.762Z,4.80
2022-09-02T03:42:56.742Z,3.90
2022-09-02T03:46:22.158Z,4.55
2022-09-02T03:49:44.663Z,4.35
2022-09-02T03:53:08.731Z,5.00
2022-09-02T03:56:31.700Z,4.78
2022-09-02T03:59:54.184Z,5.20
2022-09-02T04:03:16.348Z,4.50
2022-09-02T04:06:39.978Z,4.63
2022-09-02T04:10:02.506Z,4.88
2022-09-02T04:13:25.448Z,5.32
2022-09-02T04:16:47.433Z,4.80
2022-09-02T04:20:12.217Z,4.55
2022-09-02T04:23:35.214Z,5.00
2022-09-02T04:27:00.692Z,4.70
2022-09-02T04:30:27.879Z,4.63
2022-09-02T04:33:50.308Z,4.78
2022-09-02T04:37:13.372Z,4.93
2022-09-02T04:40:35.665Z,5.60
2022-09-02T04:43:59.737Z,5.20
2022-09-02T04:47:26.515Z,5.22
2022-09-02T04:50:48.915Z,5.28
2022-09-02T04:54:10.851Z,5.30
2022-09-02T04:57:36.290Z,5.30
2022-09-02T05:00:59.567Z,5.00
2022-09-02T05:04:22.487Z,4.47
2022-09-02T05:07:45.687Z,4.93
2022-09-02T05:11:13.381Z,5.38
2022-09-02T05:14:35.335Z,5.55
2022-09-02T05:18:00.152Z,5.97
2022-09-02T05:21:23.996Z,6.05
2022-09-02T05:24:46.797Z,6.30
2022-09-02T05:28:10.845Z,5.40
2022-09-02T05:31:33.124Z,5.82
2022-09-02T05:34:56.266Z,5.72
2022-09-02T05:38:18.268Z,5.50
2022-09-02T05:41:42.180Z,5.88
2022-09-02T05:45:07.062Z,6.32
2022-09-02T05:48:47.533Z,5.35
2022-09-02T05:52:11.804Z,5.57
2022-09-02T05:55:43.888Z,5.80
2022-09-02T05:59:07.624Z,5.30
2022-09-02T06:02:30.004Z,5.22
2022-09-02T06:05:59.668Z,5.00
2022-09-02T06:09:25.526Z,5.30
2022-09-02T06:12:49.140Z,4.22
2022-09-02T06:16:16.687Z,4.13
2022-09-02T06:19:39.456Z,4.40
2022-09-02T06:23:04.141Z,4.20
2022-09-02T06:26:26.857Z,3.55
2022-09-02T06:29:50.892Z,3.30
2022-09-02T06:33:15.948Z,3.70
2022-09-02T06:36:39.606Z,3.65
2022-09-02T06:40:01.963Z,3.13
2022-09-02T06:43:26.851Z,3.78
2022-09-02T06:47:02.025Z,3.42
2022-09-02T06:50:26.001Z,4.00
2022-09-02T06:53:50.886Z,2.95
2022-09-02T06:57:12.890Z,3.33
2022-09-02T07:00:35.911Z,3.08
2022-09-02T07:04:16.880Z,3.38
2022-09-02T07:07:40.645Z,2.90
2022-09-02T07:11:14.704Z,2.88
2022-09-02T07:14:39.386Z,2.58
2022-09-02T07:18:01.842Z,2.47
2022-09-02T07:21:31.539Z,2.38
2022-09-02T07:24:53.510Z,2.40
2022-09-02T07:28:15.536Z,2.50
2022-09-02T07:31:40.374Z,2.40
2022-09-02T07:35:05.943Z,2.38
2022-09-02T07:38:29.766Z,2.63
2022-09-02T07:41:52.408Z,3.17
2022-09-02T07:45:16.886Z,2.72
2022-09-02T07:48:41.865Z,2.65
2022-09-02T07:52:03.837Z,2.08
2022-09-02T07:55:26.839Z,2.55
2022-09-02T07:58:50.277Z,2.47
2022-09-02T08:02:12.491Z,2.53
2022-09-02T08:05:35.592Z,2.67
2022-09-02T08:08:57.621Z,2.33
2022-09-02T08:12:21.728Z,2.20
2022-09-02T08:15:45.434Z,2.22
2022-09-02T08:19:08.269Z,2.30
2022-09-02T08:22:35.071Z,2.30
2022-09-02T08:26:00.530Z,2.20
2022-09-02T08:29:22.328Z,1.85
2022-09-02T08:32:44.135Z,2.20
2022-09-02T08:36:09.138Z,2.22
2022-09-02T08:39:31.154Z,1.88
2022-09-02T08:42:55.470Z,1.80
2022-09-02T08:46:18.633Z,2.00
2022-09-02T08:49:45.294Z,1.92
2022-09-02T08:53:31.677Z,1.65
2022-09-02T08:56:53.537Z,1.80
2022-09-02T09:00:15.611Z,2.10
2022-09-02T09:04:00.487Z,1.67
2022-09-02T09:07:48.624Z,1.40
2022-09-02T09:11:26.026Z,1.70
2022-09-02T09:15:08.813Z,1.58
2022-09-02T09:18:46.546Z,1.63
2022-09-02T09:22:15.960Z,2.85
2022-09-02T09:25:37.857Z,1.70
2022-09-02T09:29:03.493Z,1.75
2022-09-02T09:32:34.920Z,1.50
2022-09-02T09:35:58.663Z,1.90
2022-09-02T09:39:24.275Z,1.70
2022-09-02T09:43:14.594Z,1.80
2022-09-02T09:46:37.295Z,1.55
2022-09-02T09:50:16.459Z,2.10
2022-09-02T09:53:39.198Z,1.52
2022-09-02T09:57:16.918Z,1.30
2022-09-02T10:00:43.300Z,1.65
2022-09-02T10:04:39.497Z,1.15
2022-09-02T10:08:02.850Z,1.02
2022-09-02T10:11:30.772Z,1.10
2022-09-02T10:14:53.326Z,1.30
2022-09-02T10:18:49.262Z,1.20
2022-09-02T10:22:17.069Z,1.48
2022-09-02T10:26:05.360Z,1.42
2022-09-02T10:29:49.083Z,1.23
2022-09-02T10:33:20.203Z,1.38
2022-09-02T10:36:44.959Z,1.52
2022-09-02T10:40:17.009Z,1.00
2022-09-02T10:44:07.785Z,1.08
2022-09-02T10:47:38.579Z,1.10
2022-09-02T10:51:24.932Z,1.38
2022-09-02T10:54:46.717Z,1.25
2022-09-02T10:58:30.410Z,1.10
2022-09-02T11:02:00.480Z,1.30
2022-09-02T11:05:38.174Z,1.30
2022-09-02T11:09:14.310Z,1.23
2022-09-02T11:12:41.642Z,1.25
2022-09-02T11:16:07.894Z,1.20
2022-09-02T11:19:55.623Z,1.20
2022-09-02T11:23:18.266Z,1.33
2022-09-02T11:27:06.252Z,0.90
2022-09-02T11:30:57.895Z,1.30
2022-09-02T11:34:49.287Z,1.25
2022-09-02T11:38:42.738Z,1.10
2022-09-02T11:42:43.430Z,1.02
2022-09-02T11:46:20.388Z,1.00
2022-09-02T11:49:56.167Z,1.23
2022-09-02T11:53:28.193Z,1.00
2022-09-02T11:57:01.765Z,1.20
2022-09-02T12:00:32.009Z,1.15
2022-09-02T12:07:49.496Z,1.20
2022-09-02T12:11:38.726Z,0.90
2022-09-02T12:15:09.384Z,1.05
2022-09-02T12:18:31.933Z,1.00
2022-09-02T12:22:15.645Z,1.00
2022-09-02T12:25:49.370Z,0.85
2022-09-02T12:29:12.698Z,1.10
2022-09-02T12:32:46.198Z,1.23
2022-09-02T12:36:10.871Z,1.23
2022-09-02T12:39:32.683Z,1.00
2022-09-02T12:43:04.290Z,1.00
2022-09-02T12:46:48.811Z,1.05
2022-09-02T12:50:50.664Z,1.40
2022-09-02T12:54:14.989Z,1.08
2022-09-02T12:57:42.668Z,1.23
2022-09-02T13:01:14.455Z,0.90
2022-09-02T13:05:01.845Z,1.20
2022-09-02T13:08:45.474Z,1.08
2022-09-02T13:12:45.799Z,1.00
2022-09-02T13:16:18.802Z,0.85
2022-09-02T13:20:00.373Z,1.00
2022-09-02T13:23:31.464Z,1.23
2022-09-02T13:27:52.444Z,1.00
2022-09-02T13:31:22.521Z,1.05
2022-09-02T13:34:46.860Z,0.80
2022-09-02T13:38:13.018Z,0.88
2022-09-02T13:41:34.714Z,0.82
2022-09-02T13:45:18.628Z,0.80
2022-09-02T13:48:40.657Z,0.85
2022-09-02T13:52:05.436Z,1.00
2022-09-02T13:55:28.415Z,1.17
2022-09-02T13:58:58.044Z,1.15
2022-09-02T14:02:31.821Z,0.90
2022-09-02T14:05:56.733Z,0.80
2022-09-02T14:09:25.704Z,1.20
2022-09-02T14:12:47.969Z,0.85
2022-09-02T14:16:29.463Z,0.88
2022-09-02T14:19:52.188Z,1.00
2022-09-02T14:23:18.378Z,1.00
2022-09-02T14:26:45.816Z,0.80
2022-09-02T14:30:10.173Z,0.90
2022-09-02T14:33:45.625Z,0.95
2022-09-02T14:37:31.054Z,0.80
2022-09-02T14:41:04.220Z,1.10
2022-09-02T14:44:34.205Z,0.88
2022-09-02T14:47:59.007Z,1.00
2022-09-02T14:51:20.775Z,1.20
2022-09-02T14:54:48.456Z,0.70
2022-09-02T14:58:10.155Z,0.55
2022-09-02T15:01:42.169Z,0.90
2022-09-02T15:05:07.380Z,0.90
2022-09-02T15:08:29.492Z,0.70
2022-09-02T15:11:53.677Z,1.00
2022-09-02T15:15:16.017Z,0.80
2022-09-02T15:18:37.829Z,1.27
2022-09-02T15:21:59.990Z,0.95
2022-09-02T15:25:22.818Z,1.00
2022-09-02T15:28:45.339Z,0.90
2022-09-02T15:32:07.282Z,0.90
2022-09-02T15:35:29.123Z,0.65
2022-09-02T15:38:50.969Z,0.70
2022-09-02T15:42:12.838Z,0.70
2022-09-02T15:45:35.111Z,0.80
2022-09-02T15:49:02.833Z,0.80
2022-09-02T15:52:24.961Z,0.88
2022-09-02T15:55:46.892Z,0.70
2022-09-02T15:59:20.993Z,0.82
2022-09-02T16:02:43.051Z,1.00
2022-09-02T16:06:07.853Z,1.00
2022-09-02T16:09:29.604Z,0.75
2022-09-02T16:12:51.343Z,1.10
2022-09-02T16:16:14.259Z,0.90
2022-09-02T16:19:36.188Z,1.15
2022-09-02T16:22:58.009Z,1.15
2022-09-02T16:26:28.434Z,0.93
2022-09-02T16:29:50.280Z,1.00
2022-09-02T16:33:12.777Z,1.05
2022-09-02T16:36:44.234Z,1.38
2022-09-02T16:40:06.588Z,1.00
2022-09-02T16:43:31.340Z,1.38
2022-09-02T16:46:53.592Z,1.35
2022-09-02T16:50:15.587Z,1.50
2022-09-02T16:53:37.517Z,1.10
2022-09-02T16:57:00.233Z,1.20
2022-09-02T17:00:23.430Z,0.90
2022-09-02T17:03:46.555Z,1.05
2022-09-02T17:07:09.368Z,1.05
2022-09-02T17:10:32.830Z,1.10
2022-09-02T17:14:00.448Z,1.08
2022-09-02T17:17:22.276Z,0.95
2022-09-02T17:20:44.087Z,1.02
2022-09-02T17:24:07.152Z,1.30
2022-09-02T17:27:28.967Z,1.77
2022-09-02T17:30:50.781Z,2.13
2022-09-02T17:34:13.147Z,1.67
2022-09-02T17:37:36.925Z,1.67
2022-09-02T17:41:17.544Z,1.33
2022-09-02T17:44:40.113Z,1.33
2022-09-02T17:48:31.937Z,1.27
2022-09-02T17:51:43.722Z,1.40
2022-09-02T17:55:06.335Z,1.75
2022-09-02T17:58:37.726Z,1.58
2022-09-02T18:02:12.071Z,1.48
2022-09-02T18:06:04.264Z,2.05
2022-09-02T18:09:27.918Z,2.28
2022-09-02T18:12:49.725Z,1.58
2022-09-02T18:16:23.345Z,1.77
2022-09-02T18:19:57.551Z,1.23
2022-09-02T18:23:24.236Z,1.50
2022-09-02T18:26:53.207Z,1.90
2022-09-02T18:30:25.237Z,1.17
2022-09-02T18:34:11.624Z,1.35
2022-09-02T18:38:00.963Z,1.08
2022-09-02T18:41:28.538Z,1.42
2022-09-02T18:44:53.287Z,1.30
2022-09-02T18:48:36.446Z,1.70
2022-09-02T18:52:02.290Z,2.33
2022-09-02T18:55:33.746Z,3.33
2022-09-02T18:59:02.082Z,2.15
2022-09-02T19:02:44.984Z,1.50
2022-09-02T19:06:17.591Z,1.20
2022-09-02T19:09:40.790Z,1.40
2022-09-02T19:13:02.555Z,1.10
2022-09-02T19:16:33.005Z,0.98
2022-09-02T19:19:54.841Z,1.23
2022-09-02T19:23:16.893Z,1.60
2022-09-02T19:26:41.168Z,1.60
2022-09-02T19:30:07.628Z,1.10
2022-09-02T19:33:31.734Z,1.05
2022-09-02T19:36:53.610Z,1.33
2022-09-02T19:40:26.250Z,1.05
2022-09-02T19:43:48.949Z,1.38
2022-09-02T19:48:02.599Z,1.50
2022-09-02T19:50:55.209Z,1.30
2022-09-02T19:54:18.302Z,1.10
2022-09-02T19:57:40.158Z,1.15
2022-09-02T20:01:04.354Z,1.10
2022-09-02T20:04:27.874Z,0.90
2022-09-02T20:07:54.023Z,1.25
2022-09-02T20:11:17.131Z,1.40
2022-09-02T20:14:38.876Z,1.38
2022-09-02T20:18:10.439Z,1.38
2022-09-02T20:21:39.872Z,1.30
2022-09-02T20:25:01.791Z,1.40
2022-09-02T20:28:35.601Z,1.20
2022-09-02T20:32:25.398Z,1.50
2022-09-02T20:36:03.912Z,1.48
2022-09-02T20:39:48.723Z,1.27
2022-09-02T20:43:58.535Z,1.50
2022-09-02T20:47:25.968Z,1.10
2022-09-02T20:50:52.629Z,1.27
2022-09-02T20:54:26.681Z,1.15
2022-09-02T20:58:19.226Z,1.30
2022-09-02T21:01:42.312Z,1.10
2022-09-02T21:05:14.196Z,1.17
2022-09-02T21:08:53.171Z,1.10
2022-09-02T21:12:46.693Z,1.10
2022-09-02T21:16:18.013Z,1.35
2022-09-02T21:19:50.831Z,0.95
2022-09-02T21:23:46.587Z,1.20
2022-09-02T21:27:22.643Z,1.02
2022-09-02T21:30:51.473Z,1.23
2022-09-02T21:34:23.589Z,1.33
2022-09-02T21:37:45.935Z,1.20
2022-09-02T21:41:31.265Z,1.38
2022-09-02T21:45:06.827Z,1.10
2022-09-02T21:49:05.477Z,1.25
2022-09-02T21:52:39.082Z,1.10
2022-09-02T21:56:09.490Z,1.17
2022-09-02T21:59:50.140Z,1.20
2022-09-02T22:03:41.314Z,1.30
2022-09-02T22:07:18.843Z,1.17
2022-09-02T22:10:46.211Z,1.20
2022-09-02T22:14:33.292Z,0.90
2022-09-02T22:18:08.223Z,0.93
2022-09-02T22:21:49.298Z,1.00
2022-09-02T22:25:15.675Z,1.08
2022-09-02T22:28:45.496Z,1.20
2022-09-02T22:32:10.100Z,1.10
2022-09-02T22:35:45.101Z,1.17
2022-09-02T22:39:08.027Z,1.00
2022-09-02T22:42:40.757Z,1.02
2022-09-02T22:46:41.086Z,1.17
2022-09-02T22:50:22.742Z,0.98
2022-09-02T22:53:45.902Z,0.93
2022-09-02T22:57:15.873Z,0.90
2022-09-02T23:01:05.442Z,0.95
2022-09-02T23:04:51.098Z,1.10
2022-09-02T23:08:20.176Z,1.50
2022-09-02T23:11:51.215Z,1.30
2022-09-02T23:15:21.775Z,0.93
2022-09-02T23:19:06.998Z,1.10
2022-09-02T23:22:46.510Z,1.15
2022-09-02T23:26:36.041Z,1.02
2022-09-02T23:29:58.063Z,0.90
2022-09-02T23:34:06.969Z,1.00
2022-09-02T23:37:36.673Z,1.00
2022-09-02T23:41:10.227Z,1.20
2022-09-02T23:44:34.772Z,1.13
2022-09-02T23:48:05.527Z,0.80
2022-09-02T23:52:08.583Z,0.90
2022-09-02T23:55:46.253Z,0.88
2022-09-02T23:59:13.735Z,1.02
